createdAt,value
2022-11-03T00:01:57.334Z,2.03
2022-11-03T00:04:26.960Z,1.63
2022-11-03T00:06:57.089Z,1.42
2022-11-03T00:09:27.751Z,1.73
2022-11-03T00:11:57.345Z,1.20
2022-11-03T00:14:27.849Z,1.33
2022-11-03T00:16:57.242Z,1.70
2022-11-03T00:19:26.284Z,1.70
2022-11-03T00:21:58.519Z,1.50
2022-11-03T00:24:27.548Z,1.50
2022-11-03T00:26:56.934Z,1.55
2022-11-03T00:29:27.586Z,2.00
2022-11-03T00:31:56.994Z,1.63
2022-11-03T00:34:26.081Z,1.30
2022-11-03T00:36:55.802Z,1.52
2022-11-03T00:39:24.927Z,1.70
2022-11-03T00:41:54.278Z,1.50
2022-11-03T00:44:23.485Z,1.55
2022-11-03T00:46:53.945Z,1.63
2022-11-03T00:49:23.417Z,1.55
2022-11-03T00:51:52.551Z,1.92
2022-11-03T00:54:21.612Z,2.60
2022-11-03T00:56:51.003Z,1.63
2022-11-03T00:59:19.996Z,1.50
2022-11-03T01:01:49.503Z,1.77
2022-11-03T01:04:37.661Z,1.52
2022-11-03T01:07:07.825Z,1.92
2022-11-03T01:09:38.449Z,1.90
2022-11-03T01:12:09.638Z,1.63
2022-11-03T01:14:40.349Z,1.63
2022-11-03T01:17:11.405Z,1.60
2022-11-03T01:19:42.252Z,1.88
2022-11-03T01:22:12.077Z,2.20
2022-11-03T01:24:42.021Z,1.65
2022-11-03T01:27:13.302Z,1.85
2022-11-03T01:29:42.634Z,1.60
2022-11-03T01:32:12.784Z,1.63
2022-11-03T01:34:43.248Z,1.95
2022-11-03T01:37:12.638Z,1.80
2022-11-03T01:39:41.625Z,1.90
2022-11-03T01:42:14.592Z,1.92
2022-11-03T01:44:47.752Z,1.95
2022-11-03T01:47:24.126Z,1.90
2022-11-03T01:50:00.450Z,1.80
2022-11-03T01:52:36.848Z,1.70
2022-11-03T01:55:10.148Z,1.77
2022-11-03T01:57:44.156Z,2.20
2022-11-03T02:00:14.485Z,2.45
2022-11-03T02:02:45.019Z,2.05
2022-11-03T02:05:17.702Z,2.47
2022-11-03T02:07:54.919Z,2.13
2022-11-03T02:10:24.998Z,2.10
2022-11-03T02:12:54.735Z,2.70
2022-11-03T02:15:25.332Z,1.92
2022-11-03T02:17:57.487Z,1.75
2022-11-03T02:20:32.989Z,1.95
2022-11-03T02:23:27.869Z,1.75
2022-11-03T02:26:00.755Z,2.53
2022-11-03T02:28:32.640Z,1.90
2022-11-03T02:31:11.851Z,2.13
2022-11-03T02:33:50.144Z,1.50
2022-11-03T02:36:25.162Z,2.67
2022-11-03T02:38:59.514Z,1.80
2022-11-03T02:41:31.830Z,2.00
2022-11-03T02:44:02.981Z,2.00
2022-11-03T02:46:33.918Z,2.35
2022-11-03T02:49:03.337Z,1.65
2022-11-03T02:51:32.535Z,1.70
2022-11-03T02:54:10.249Z,1.83
2022-11-03T02:56:48.394Z,1.70
2022-11-03T02:59:21.670Z,2.05
2022-11-03T03:01:56.948Z,1.85
2022-11-03T03:07:03.140Z,1.80
2022-11-03T03:09:38.720Z,2.30
2022-11-03T03:12:11.682Z,1.70
2022-11-03T03:14:44.192Z,2.00
2022-11-03T03:17:19.811Z,2.03
2022-11-03T03:19:54.461Z,1.88
2022-11-03T03:22:30.310Z,2.78
2022-11-03T03:25:05.792Z,1.92
2022-11-03T03:27:37.937Z,1.73
2022-11-03T03:35:23.867Z,1.88
2022-11-03T03:37:58.641Z,1.98
2022-11-03T03:40:32.349Z,2.60
2022-11-03T03:43:05.340Z,2.47
2022-11-03T03:45:35.604Z,2.28
2022-11-03T03:48:05.898Z,1.88
2022-11-03T03:50:39.197Z,1.65
2022-11-03T03:53:13.136Z,1.88
2022-11-03T03:55:43.891Z,2.78
2022-11-03T03:58:16.312Z,1.75
2022-11-03T04:00:46.286Z,1.80
2022-11-03T04:03:18.773Z,1.80
2022-11-03T04:05:48.638Z,2.67
2022-11-03T04:08:19.201Z,2.47
2022-11-03T04:11:02.345Z,2.40
2022-11-03T04:13:51.338Z,2.10
2022-11-03T04:16:37.867Z,3.00
2022-11-03T04:19:24.361Z,2.47
2022-11-03T04:24:42.098Z,2.30
2022-11-03T04:27:28.288Z,2.17
2022-11-03T04:30:18.203Z,2.83
2022-11-03T04:32:49.225Z,2.20
2022-11-03T04:35:21.289Z,1.95
2022-11-03T04:37:55.344Z,2.30
2022-11-03T04:40:25.599Z,2.72
2022-11-03T04:42:55.593Z,2.25
2022-11-03T04:45:30.343Z,2.10
2022-11-03T04:48:02.849Z,1.73
2022-11-03T04:50:32.505Z,2.42
2022-11-03T04:53:01.869Z,2.50
2022-11-03T04:55:31.233Z,2.22
2022-11-03T04:58:06.091Z,2.30
2022-11-03T05:00:36.814Z,3.80
2022-11-03T05:03:06.797Z,3.13
2022-11-03T05:05:36.185Z,3.17
2022-11-03T05:08:09.403Z,3.55
2022-11-03T05:10:38.857Z,2.30
2022-11-03T05:13:17.298Z,2.20
2022-11-03T05:15:49.220Z,2.55
2022-11-03T05:18:22.438Z,2.30
2022-11-03T05:20:55.643Z,3.92
2022-11-03T05:23:25.229Z,3.90
2022-11-03T05:25:56.186Z,4.18
2022-11-03T05:28:29.111Z,5.85
2022-11-03T05:30:59.978Z,5.00
2022-11-03T05:33:31.052Z,4.38
2022-11-03T05:36:03.279Z,4.88
2022-11-03T05:38:34.424Z,4.47
2022-11-03T05:41:03.685Z,4.70
2022-11-03T05:43:34.692Z,4.85
2022-11-03T05:48:41.841Z,4.40
2022-11-03T05:51:20.782Z,5.00
2022-11-03T05:53:52.456Z,4.25
2022-11-03T05:56:25.216Z,4.45
2022-11-03T05:58:56.957Z,5.28
2022-11-03T06:01:31.961Z,3.50
2022-11-03T06:04:02.479Z,4.13
2022-11-03T06:06:36.403Z,5.38
2022-11-03T06:09:14.716Z,4.90
2022-11-03T06:11:45.338Z,4.03
2022-11-03T06:14:23.807Z,4.10
2022-11-03T06:16:57.935Z,3.58
2022-11-03T06:19:30.641Z,3.72
2022-11-03T06:22:07.140Z,3.67
2022-11-03T06:24:36.302Z,4.10
2022-11-03T06:27:05.846Z,3.65
2022-11-03T06:29:35.650Z,3.42
2022-11-03T06:32:13.251Z,4.35
2022-11-03T06:34:47.245Z,2.90
2022-11-03T06:37:21.867Z,2.90
2022-11-03T06:39:52.191Z,2.92
2022-11-03T06:42:26.675Z,3.53
2022-11-03T06:44:58.471Z,3.28
2022-11-03T06:47:31.337Z,2.67
2022-11-03T06:50:01.942Z,3.10
2022-11-03T06:52:34.472Z,2.80
2022-11-03T06:55:22.218Z,2.63
2022-11-03T06:57:55.273Z,5.35
2022-11-03T07:00:36.106Z,5.05
2022-11-03T07:03:15.092Z,4.57
2022-11-03T07:05:45.451Z,6.95
2022-11-03T07:08:24.693Z,6.30
2022-11-03T07:11:02.499Z,5.45
2022-11-03T07:13:35.951Z,5.32
2022-11-03T07:16:05.528Z,4.10
2022-11-03T07:18:42.741Z,4.22
2022-11-03T07:21:32.231Z,3.90
2022-11-03T07:24:04.413Z,3.88
2022-11-03T07:26:35.054Z,3.78
2022-11-03T07:29:04.999Z,3.92
2022-11-03T07:31:34.354Z,4.10
2022-11-03T07:34:07.187Z,4.13
2022-11-03T07:36:36.378Z,3.70
2022-11-03T07:39:07.078Z,4.40
2022-11-03T07:41:36.481Z,3.70
2022-11-03T07:44:07.254Z,3.30
2022-11-03T07:46:36.395Z,4.05
2022-11-03T07:49:12.107Z,4.43
2022-11-03T07:51:42.399Z,3.55
2022-11-03T07:54:19.204Z,3.88
2022-11-03T07:56:51.997Z,3.35
2022-11-03T08:01:55.577Z,3.60
2022-11-03T08:04:28.791Z,3.38
2022-11-03T08:06:58.298Z,3.58
2022-11-03T08:09:28.186Z,5.10
2022-11-03T08:11:57.510Z,3.80
2022-11-03T08:14:27.482Z,3.58
2022-11-03T08:16:56.749Z,2.78
2022-11-03T08:19:27.489Z,3.85
2022-11-03T08:21:56.538Z,3.33
2022-11-03T08:24:26.082Z,2.70
2022-11-03T08:26:55.239Z,3.50
2022-11-03T08:29:27.326Z,4.13
2022-11-03T08:31:56.728Z,3.13
2022-11-03T08:34:27.542Z,5.80
2022-11-03T08:36:56.646Z,4.05
2022-11-03T08:39:25.992Z,1.73
2022-11-03T08:41:55.037Z,2.10
2022-11-03T08:44:24.504Z,1.80
2022-11-03T08:46:53.500Z,2.28
2022-11-03T08:49:22.985Z,2.75
2022-11-03T08:51:53.635Z,6.47
2022-11-03T08:54:22.987Z,4.43
2022-11-03T08:56:52.147Z,2.17
2022-11-03T08:59:21.458Z,3.05
2022-11-03T09:01:50.939Z,2.95
2022-11-03T09:04:20.476Z,2.00
2022-11-03T09:06:49.568Z,3.40
2022-11-03T09:12:10.362Z,2.20
2022-11-03T09:14:39.759Z,1.80
2022-11-03T09:17:08.848Z,1.77
2022-11-03T09:19:37.865Z,2.20
2022-11-03T09:22:07.322Z,1.75
2022-11-03T09:24:37.813Z,2.15
2022-11-03T09:27:07.310Z,1.80
2022-11-03T09:29:58.297Z,2.38
2022-11-03T09:32:25.981Z,1.40
2022-11-03T09:34:54.994Z,2.20
2022-11-03T09:37:24.256Z,1.60
2022-11-03T09:39:54.662Z,1.50
2022-11-03T09:42:24.847Z,1.77
2022-11-03T09:44:55.077Z,1.60
2022-11-03T09:47:28.691Z,1.60
2022-11-03T09:49:59.489Z,1.73
2022-11-03T09:52:29.027Z,1.77
2022-11-03T09:54:59.816Z,2.38
2022-11-03T09:57:30.192Z,1.88
2022-11-03T09:59:59.256Z,1.60
2022-11-03T10:02:30.679Z,1.60
2022-11-03T10:05:08.270Z,1.55
2022-11-03T10:07:40.615Z,1.45
2022-11-03T10:10:18.374Z,1.63
2022-11-03T10:12:50.473Z,1.25
2022-11-03T10:15:21.271Z,1.38
2022-11-03T10:17:51.598Z,1.50
2022-11-03T10:20:23.930Z,1.33
2022-11-03T10:22:55.625Z,1.70
2022-11-03T10:25:37.422Z,1.50
2022-11-03T10:28:18.281Z,1.70
2022-11-03T10:33:43.498Z,1.38
2022-11-03T10:36:26.040Z,1.50
2022-11-03T10:38:56.185Z,1.75
2022-11-03T10:41:28.151Z,1.70
2022-11-03T10:44:08.174Z,1.63
2022-11-03T10:46:50.379Z,1.50
2022-11-03T10:49:21.588Z,1.63
2022-11-03T10:51:53.362Z,2.10
2022-11-03T10:54:24.169Z,2.38
2022-11-03T10:56:54.849Z,2.70
2022-11-03T10:59:32.003Z,2.13
2022-11-03T11:02:02.504Z,3.05
2022-11-03T11:04:34.793Z,3.25
2022-11-03T11:07:04.064Z,4.30
2022-11-03T11:09:34.674Z,2.75
2022-11-03T11:12:15.254Z,1.95
2022-11-03T11:14:58.096Z,1.80
2022-11-03T11:17:44.971Z,2.72
2022-11-03T11:20:44.358Z,3.30
2022-11-03T11:23:50.221Z,2.25
2022-11-03T11:26:33.264Z,1.70
2022-11-03T11:29:37.030Z,2.00
2022-11-03T11:32:47.909Z,1.80
2022-11-03T11:35:39.845Z,2.10
2022-11-03T11:38:46.495Z,1.92
2022-11-03T11:41:15.716Z,2.22
2022-11-03T11:43:45.241Z,2.15
2022-11-03T11:46:42.444Z,2.42
2022-11-03T11:49:19.210Z,2.55
2022-11-03T11:51:48.854Z,1.85
2022-11-03T11:54:21.392Z,2.50
2022-11-03T11:56:51.229Z,2.42
2022-11-03T11:59:25.776Z,2.22
2022-11-03T12:01:58.093Z,2.17
2022-11-03T12:04:31.784Z,2.72
2022-11-03T12:07:01.176Z,2.30
2022-11-03T12:09:30.813Z,2.88
2022-11-03T12:12:08.326Z,2.70
2022-11-03T12:14:39.276Z,2.25
2022-11-03T12:17:35.181Z,2.30
2022-11-03T12:20:46.738Z,2.30
2022-11-03T12:23:34.262Z,2.45
2022-11-03T12:26:04.238Z,1.90
2022-11-03T12:28:35.566Z,2.40
2022-11-03T12:31:05.111Z,2.75
2022-11-03T12:33:35.634Z,2.33
2022-11-03T12:36:05.145Z,2.33
2022-11-03T12:38:34.137Z,3.13
2022-11-03T12:41:21.270Z,2.83
2022-11-03T12:43:51.949Z,2.03
2022-11-03T12:46:22.391Z,2.17
2022-11-03T12:48:53.280Z,2.30
2022-11-03T12:51:24.403Z,2.10
2022-11-03T12:53:54.237Z,2.30
2022-11-03T12:56:23.374Z,2.03
2022-11-03T12:58:53.143Z,2.20
2022-11-03T13:01:22.533Z,2.28
2022-11-03T13:03:53.420Z,2.10
2022-11-03T13:06:22.630Z,2.40
2022-11-03T13:08:53.248Z,2.38
2022-11-03T13:11:39.768Z,1.92
2022-11-03T13:14:09.301Z,2.05
2022-11-03T13:16:38.472Z,2.30
2022-11-03T13:19:10.711Z,2.38
2022-11-03T13:21:39.878Z,2.25
2022-11-03T13:24:09.659Z,2.00
2022-11-03T13:26:38.881Z,2.22
2022-11-03T13:29:08.203Z,1.95
2022-11-03T13:31:37.253Z,2.42
2022-11-03T13:34:08.110Z,1.85
2022-11-03T13:36:37.189Z,2.17
2022-11-03T13:39:06.468Z,2.22
2022-11-03T13:41:35.666Z,2.38
2022-11-03T13:44:05.178Z,2.78
2022-11-03T13:46:34.273Z,2.50
2022-11-03T13:51:54.004Z,2.65
2022-11-03T14:00:05.152Z,2.80
2022-11-03T14:05:30.812Z,2.95
2022-11-03T14:08:01.354Z,2.90
2022-11-03T14:10:30.656Z,2.63
2022-11-03T14:12:59.045Z,3.30
2022-11-03T14:15:28.522Z,2.80
2022-11-03T14:17:57.617Z,2.97
2022-11-03T14:23:02.453Z,4.63
2022-11-03T14:25:31.799Z,4.60
2022-11-03T14:28:01.050Z,4.78
2022-11-03T14:30:30.677Z,5.00
2022-11-03T14:32:59.995Z,3.22
2022-11-03T14:35:29.471Z,4.03
2022-11-03T14:37:58.714Z,4.07
2022-11-03T14:40:46.491Z,4.22
2022-11-03T14:43:15.510Z,6.43
2022-11-03T14:45:45.022Z,4.78
2022-11-03T14:48:14.108Z,4.53
2022-11-03T14:50:43.453Z,4.70
2022-11-03T14:53:12.602Z,5.32
2022-11-03T14:55:43.424Z,4.72
2022-11-03T14:58:12.513Z,4.95
2022-11-03T15:00:41.940Z,6.05
2022-11-03T15:03:11.013Z,6.85
2022-11-03T15:05:46.255Z,9.15
2022-11-03T15:08:17.352Z,8.38
2022-11-03T15:10:48.134Z,7.85
2022-11-03T15:13:17.308Z,7.88
2022-11-03T15:15:46.773Z,9.82
2022-11-03T15:18:15.895Z,7.40
2022-11-03T15:20:46.097Z,8.93
2022-11-03T15:26:06.125Z,16.40
2022-11-03T15:28:35.669Z,14.07
2022-11-03T15:31:04.814Z,12.80
2022-11-03T15:33:34.193Z,9.65
2022-11-03T15:36:04.722Z,10.40
2022-11-03T15:38:34.429Z,11.60
2022-11-03T15:41:19.507Z,9.57
2022-11-03T15:43:51.528Z,10.63
2022-11-03T15:46:20.944Z,10.90
2022-11-03T15:48:50.343Z,11.75
2022-11-03T15:51:19.431Z,11.43
2022-11-03T15:53:52.178Z,11.43
2022-11-03T15:56:24.167Z,12.05
2022-11-03T15:58:55.026Z,16.10
2022-11-03T16:01:24.225Z,16.63
2022-11-03T16:03:53.732Z,14.05
2022-11-03T16:06:35.103Z,18.48
2022-11-03T16:09:12.780Z,19.98
2022-11-03T16:11:41.906Z,17.67
2022-11-03T16:14:13.299Z,14.73
2022-11-03T16:16:42.837Z,15.38
2022-11-03T16:19:11.952Z,15.63
2022-11-03T16:21:41.540Z,16.52
2022-11-03T16:24:11.412Z,15.43
2022-11-03T16:26:40.809Z,19.13
2022-11-03T16:29:11.337Z,21.17
2022-11-03T16:31:41.040Z,19.13
2022-11-03T16:34:10.174Z,20.38
2022-11-03T16:36:39.467Z,20.95
2022-11-03T16:39:09.511Z,20.98
2022-11-03T16:41:39.271Z,21.52
2022-11-03T16:44:08.733Z,20.75
2022-11-03T16:46:39.455Z,20.52
2022-11-03T16:49:08.553Z,20.08
2022-11-03T16:51:37.996Z,19.92
2022-11-03T16:54:07.570Z,21.08
2022-11-03T16:56:36.884Z,20.40
2022-11-03T16:59:06.036Z,19.17
2022-11-03T17:01:35.456Z,22.35
2022-11-03T17:04:06.496Z,23.02
2022-11-03T17:06:35.804Z,24.27
2022-11-03T17:09:05.533Z,22.95
2022-11-03T17:11:38.031Z,24.63
2022-11-03T17:14:08.823Z,23.10
2022-11-03T17:16:38.247Z,32.63
2022-11-03T17:19:09.346Z,34.97
2022-11-03T17:21:38.662Z,30.70
2022-11-03T17:24:08.494Z,28.08
2022-11-03T17:26:47.928Z,28.77
2022-11-03T17:29:20.553Z,28.27
2022-11-03T17:31:50.821Z,30.05
2022-11-03T17:34:25.750Z,26.17
2022-11-03T17:36:55.342Z,25.92
2022-11-03T17:39:30.601Z,32.03
2022-11-03T17:42:16.999Z,30.60
2022-11-03T17:44:47.537Z,50.75
2022-11-03T17:47:17.261Z,34.22
2022-11-03T17:49:48.826Z,33.80
2022-11-03T17:52:25.142Z,33.60
2022-11-03T17:54:59.211Z,45.30
2022-11-03T17:57:30.033Z,42.03
2022-11-03T18:00:01.479Z,43.42
2022-11-03T18:02:33.501Z,44.70
2022-11-03T18:05:21.790Z,44.10
2022-11-03T18:07:52.635Z,43.20
2022-11-03T18:10:22.607Z,46.28
2022-11-03T18:13:11.153Z,41.30
2022-11-03T18:15:42.207Z,41.33
2022-11-03T18:18:16.206Z,39.33
2022-11-03T18:20:53.630Z,39.67
2022-11-03T18:23:25.473Z,41.55
2022-11-03T18:25:55.536Z,48.53
2022-11-03T18:28:24.985Z,44.08
2022-11-03T18:30:56.632Z,45.67
2022-11-03T18:33:28.647Z,47.05
2022-11-03T18:36:00.298Z,46.72
2022-11-03T18:38:30.372Z,44.58
2022-11-03T18:40:59.713Z,47.50
2022-11-03T18:43:30.900Z,41.90
2022-11-03T18:46:00.038Z,47.88
2022-11-03T18:48:29.505Z,50.60
2022-11-03T18:51:01.085Z,48.33
2022-11-03T18:53:32.121Z,48.08
2022-11-03T18:56:02.883Z,44.20
2022-11-03T18:58:35.017Z,45.25
2022-11-03T19:01:04.144Z,43.03
2022-11-03T19:03:33.668Z,46.63
2022-11-03T19:06:05.192Z,48.72
2022-11-03T19:08:35.719Z,44.63
2022-11-03T19:11:04.993Z,48.88
2022-11-03T19:13:37.723Z,59.10
2022-11-03T19:16:14.544Z,59.08
2022-11-03T19:18:45.147Z,57.75
2022-11-03T19:21:17.437Z,60.58
2022-11-03T19:23:48.156Z,57.78
2022-11-03T19:26:22.746Z,47.17
2022-11-03T19:28:55.399Z,45.95
2022-11-03T19:31:30.299Z,44.95
2022-11-03T19:34:00.229Z,43.40
2022-11-03T19:36:31.695Z,41.15
2022-11-03T19:39:01.597Z,39.65
2022-11-03T19:41:48.289Z,37.63
2022-11-03T19:44:17.617Z,37.38
2022-11-03T19:46:46.779Z,37.13
2022-11-03T19:49:16.645Z,37.00
2022-11-03T19:51:47.243Z,38.35
2022-11-03T19:54:19.177Z,38.33
2022-11-03T19:56:49.844Z,36.53
2022-11-03T19:59:19.581Z,36.38
2022-11-03T20:01:49.761Z,43.85
2022-11-03T20:04:19.385Z,43.63
2022-11-03T20:06:50.021Z,40.90
2022-11-03T20:09:20.191Z,41.85
2022-11-03T20:11:49.333Z,41.63
2022-11-03T20:14:22.010Z,47.63
2022-11-03T20:16:51.241Z,40.95
2022-11-03T20:19:20.806Z,42.15
2022-11-03T20:21:52.113Z,42.30
2022-11-03T20:24:21.646Z,44.70
2022-11-03T20:26:50.765Z,44.67
2022-11-03T20:29:20.297Z,41.50
2022-11-03T20:31:49.843Z,43.42
2022-11-03T20:34:18.937Z,45.80
2022-11-03T20:36:48.437Z,44.30
2022-11-03T20:39:20.512Z,44.33
2022-11-03T20:41:52.270Z,50.28
2022-11-03T20:44:21.425Z,56.22
2022-11-03T20:46:50.687Z,46.22
2022-11-03T20:49:21.659Z,43.38
2022-11-03T20:51:51.982Z,41.45
2022-11-03T20:54:23.172Z,42.05
2022-11-03T20:56:52.599Z,39.35
2022-11-03T20:59:24.698Z,39.75
2022-11-03T21:01:54.550Z,41.83
2022-11-03T21:04:23.970Z,42.90
2022-11-03T21:06:53.538Z,43.17
2022-11-03T21:09:23.975Z,41.38
2022-11-03T21:11:53.781Z,40.95
2022-11-03T21:14:27.092Z,41.08
2022-11-03T21:17:14.073Z,40.30
2022-11-03T21:20:04.219Z,38.10
2022-11-03T21:22:53.904Z,37.45
2022-11-03T21:25:25.962Z,38.10
2022-11-03T21:27:55.944Z,37.40
2022-11-03T21:30:25.307Z,34.85
2022-11-03T21:32:54.617Z,36.95
2022-11-03T21:35:24.178Z,33.80
2022-11-03T21:37:53.599Z,33.88
2022-11-03T21:40:23.962Z,33.40
2022-11-03T21:43:10.406Z,33.50
2022-11-03T21:45:39.833Z,33.55
2022-11-03T21:48:26.944Z,34.85
2022-11-03T21:50:56.140Z,33.33
2022-11-03T21:53:26.241Z,34.00
2022-11-03T21:55:56.787Z,35.40
2022-11-03T21:58:26.244Z,37.22
2022-11-03T22:00:55.297Z,37.22
2022-11-03T22:03:25.420Z,35.22
2022-11-03T22:05:54.526Z,35.13
2022-11-03T22:08:24.496Z,37.05
2022-11-03T22:11:14.949Z,33.00
2022-11-03T22:13:44.606Z,32.58
2022-11-03T22:16:31.568Z,33.45
2022-11-03T22:19:14.860Z,31.40
2022-11-03T22:22:02.079Z,32.15
2022-11-03T22:24:48.773Z,29.65
2022-11-03T22:27:19.419Z,28.38
2022-11-03T22:30:11.684Z,28.00
2022-11-03T22:32:41.815Z,26.63
2022-11-03T22:35:30.274Z,25.67
2022-11-03T22:38:07.415Z,29.05
2022-11-03T22:40:55.525Z,26.92
2022-11-03T22:43:44.854Z,28.58
2022-11-03T22:46:16.018Z,26.58
2022-11-03T22:48:45.450Z,26.85
2022-11-03T22:51:16.798Z,26.42
2022-11-03T22:54:03.310Z,25.73
2022-11-03T22:56:33.665Z,26.55
2022-11-03T22:59:04.199Z,25.35
2022-11-03T23:01:33.808Z,26.42
2022-11-03T23:04:03.110Z,25.15
2022-11-03T23:06:37.237Z,25.80
2022-11-03T23:09:06.701Z,25.48
2022-11-03T23:11:36.281Z,25.17
2022-11-03T23:14:08.750Z,25.73
2022-11-03T23:16:40.105Z,25.73
2022-11-03T23:19:28.297Z,26.40
2022-11-03T23:21:58.006Z,25.80
2022-11-03T23:24:45.664Z,27.05
2022-11-03T23:27:15.397Z,25.98
2022-11-03T23:29:45.863Z,29.35
2022-11-03T23:32:15.266Z,29.88
2022-11-03T23:34:44.608Z,30.92
2022-11-03T23:37:14.389Z,27.83
2022-11-03T23:39:43.493Z,26.63
2022-11-03T23:42:12.566Z,27.95
2022-11-03T23:44:59.269Z,28.60
2022-11-03T23:47:47.172Z,26.48
2022-11-03T23:50:16.799Z,27.05
2022-11-03T23:52:45.782Z,27.08
2022-11-03T23:55:15.250Z,25.42
2022-11-03T23:58:02.015Z,26.60
